Time;durP1;ratioP1;P1;durP2;ratioP2;P2;SDS_P1;SDS_P2;PMS_P1;PMS_P2;Temp;Humidity;BMP_temperature;BMP_pressure;BME280_temperature;BME280_humidity;BME280_pressure;Samples;Min_cycle;Max_cycle;Signal;HPM_P1;HPM_P2
2023/10/03 00:00:13;;;;;;;9.93;6.13;;;;;;;;;;745755;183;922259;-63
2023/10/03 00:02:32;;;;;;;12.10;5.47;;;;;;;;;;765264;181;917283;-63
2023/10/03 00:04:58;;;;;;;8.47;4.87;;;;;;;;;;773238;180;918992;-66
2023/10/03 00:07:24;;;;;;;13.67;5.50;;;;;;;;;;770184;180;921686;-65
2023/10/03 00:09:49;;;;;;;9.57;5.27;;;;;;;;;;768235;181;825039;-62
2023/10/03 00:12:16;;;;;;;10.33;5.67;;;;;;;;;;773521;181;823448;-62
2023/10/03 00:14:41;;;;;;;8.07;5.20;;;;;;;;;;771541;178;840600;-65
2023/10/03 00:17:07;;;;;;;8.00;5.20;;;;;;;;;;769771;178;817181;-66
2023/10/03 00:19:33;;;;;;;10.03;5.50;;;;;;;;;;772711;178;817067;-65
2023/10/03 00:21:59;;;;;;;10.43;6.27;;;;;;;;;;770282;180;877399;-64
2023/10/03 00:24:25;;;;;;;12.00;5.90;;;;;;;;;;766659;182;919899;-62
2023/10/03 00:26:53;;;;;;;8.17;4.93;;;;;;;;;;770682;180;919458;-62
2023/10/03 00:29:23;;;;;;;9.77;5.80;;;;;;;;;;776428;182;819393;-62
2023/10/03 00:31:42;;;;;;;15.50;5.43;;;;;;;;;;774378;180;914307;-63
2023/10/03 00:34:08;;;;;;;10.23;5.60;;;;;;;;;;767934;181;918713;-62
2023/10/03 00:36:34;;;;;;;14.03;5.30;;;;;;;;;;773450;181;919366;-62
2023/10/03 00:39:00;;;;;;;11.97;5.40;;;;;;;;;;769968;181;919832;-62
2023/10/03 00:41:25;;;;;;;8.40;5.27;;;;;;;;;;768842;181;918687;-66
2023/10/03 00:43:54;;;;;;;9.67;5.77;;;;;;;;;;773117;181;918636;-65
2023/10/03 00:46:21;;;;;;;8.30;5.53;;;;;;;;;;753130;185;918151;-63
2023/10/03 00:48:47;;;;;;;7.30;4.83;;;;;;;;;;753794;184;866233;-64
2023/10/03 00:51:13;;;;;;;12.00;4.93;;;;;;;;;;758302;183;851241;-65
2023/10/03 00:53:39;;;;;;;8.00;5.10;;;;;;;;;;760670;185;917381;-65
2023/10/03 00:56:09;;;;;;;10.87;5.10;;;;;;;;;;748251;183;920181;-64
2023/10/03 00:58:32;;;;;;;18.80;6.73;;;;;;;;;;762996;182;916777;-66
2023/10/03 01:00:58;;;;;;;9.60;5.83;;;;;;;;;;766676;182;919200;-65
2023/10/03 01:03:28;;;;;;;9.63;4.63;;;;;;;;;;752246;185;919116;-64
2023/10/03 01:05:53;;;;;;;8.50;4.80;;;;;;;;;;749728;182;918957;-67
2023/10/03 01:08:21;;;;;;;7.60;5.27;;;;;;;;;;764998;181;919436;-64
2023/10/03 01:10:45;;;;;;;11.33;6.17;;;;;;;;;;774158;181;919244;-64
2023/10/03 01:13:12;;;;;;;10.90;4.57;;;;;;;;;;763638;182;918753;-63
2023/10/03 01:15:38;;;;;;;12.40;5.80;;;;;;;;;;774990;178;815989;-64
2023/10/03 01:18:05;;;;;;;9.97;5.67;;;;;;;;;;757411;184;918653;-66
2023/10/03 01:20:40;;;;;;;11.05;5.43;;;;;;;;;;765602;181;919595;-66
2023/10/03 01:22:56;;;;;;;8.73;5.40;;;;;;;;;;767474;181;926195;-66
2023/10/03 01:25:27;;;;;;;14.70;4.83;;;;;;;;;;759369;185;919309;-64
2023/10/03 01:27:49;;;;;;;8.33;5.23;;;;;;;;;;769135;181;919098;-67
2023/10/03 01:30:16;;;;;;;10.37;5.63;;;;;;;;;;763517;182;921280;-64
2023/10/03 01:32:43;;;;;;;9.70;4.57;;;;;;;;;;768313;182;923391;-67
2023/10/03 01:35:09;;;;;;;8.60;5.53;;;;;;;;;;759896;185;919200;-66
2023/10/03 01:37:35;;;;;;;8.07;4.27;;;;;;;;;;756494;183;913831;-64
2023/10/03 01:40:01;;;;;;;9.27;5.27;;;;;;;;;;769213;182;823818;-65
2023/10/03 01:42:27;;;;;;;9.13;5.20;;;;;;;;;;770351;180;818916;-65
2023/10/03 01:44:53;;;;;;;10.50;6.00;;;;;;;;;;769195;178;919590;-66
2023/10/03 01:47:19;;;;;;;6.63;4.40;;;;;;;;;;772519;178;918698;-64
2023/10/03 01:49:44;;;;;;;13.10;5.87;;;;;;;;;;773435;181;937082;-66
2023/10/03 01:52:10;;;;;;;20.00;4.82;;;;;;;;;;769104;181;918801;-67
2023/10/03 01:54:36;;;;;;;6.57;4.57;;;;;;;;;;767075;181;918258;-66
2023/10/03 01:57:03;;;;;;;9.80;4.87;;;;;;;;;;766788;181;914329;-66
2023/10/03 01:59:29;;;;;;;12.80;4.87;;;;;;;;;;776174;178;921007;-65
2023/10/03 02:01:56;;;;;;;9.30;4.40;;;;;;;;;;769577;181;918031;-65
2023/10/03 02:04:28;;;;;;;7.03;4.50;;;;;;;;;;767010;180;1020277;-65
2023/10/03 02:06:49;;;;;;;14.73;5.73;;;;;;;;;;775253;178;918958;-66
2023/10/03 02:09:15;;;;;;;9.53;5.20;;;;;;;;;;769734;181;824669;-67
2023/10/03 02:11:41;;;;;;;10.60;5.03;;;;;;;;;;769532;181;919969;-66
2023/10/03 02:14:08;;;;;;;8.60;3.83;;;;;;;;;;754628;185;917682;-65
2023/10/03 02:16:36;;;;;;;7.67;5.87;;;;;;;;;;773106;179;923140;-65
2023/10/03 02:18:58;;;;;;;6.83;4.53;;;;;;;;;;768135;180;918813;-65
2023/10/03 02:21:24;;;;;;;7.43;4.20;;;;;;;;;;766243;181;918442;-64
2023/10/03 02:23:50;;;;;;;8.53;5.67;;;;;;;;;;772471;181;918878;-65
2023/10/03 02:26:16;;;;;;;9.33;5.20;;;;;;;;;;766965;180;920976;-64
2023/10/03 02:28:41;;;;;;;9.50;5.40;;;;;;;;;;774105;179;818638;-66
2023/10/03 02:31:07;;;;;;;11.53;5.63;;;;;;;;;;758620;186;918326;-65
2023/10/03 02:33:37;;;;;;;7.93;5.00;;;;;;;;;;750868;183;918277;-66
2023/10/03 02:36:05;;;;;;;6.43;4.57;;;;;;;;;;768171;180;918630;-66
2023/10/03 02:38:35;;;;;;;9.00;4.33;;;;;;;;;;772820;178;918888;-65
2023/10/03 02:40:57;;;;;;;7.80;4.70;;;;;;;;;;771421;182;923071;-66
2023/10/03 02:43:23;;;;;;;8.50;4.90;;;;;;;;;;767809;181;922874;-66
2023/10/03 02:45:49;;;;;;;8.13;5.07;;;;;;;;;;769082;181;919011;-67
2023/10/03 02:48:15;;;;;;;9.33;4.63;;;;;;;;;;755386;184;869331;-66
2023/10/03 02:50:41;;;;;;;11.12;5.30;;;;;;;;;;771144;180;919200;-66
2023/10/03 02:53:11;;;;;;;7.90;4.40;;;;;;;;;;770353;181;918937;-65
2023/10/03 02:55:33;;;;;;;7.30;5.30;;;;;;;;;;758725;183;919896;-66
2023/10/03 02:57:59;;;;;;;9.27;5.47;;;;;;;;;;734133;187;919942;-64
2023/10/03 03:00:24;;;;;;;10.57;5.80;;;;;;;;;;770952;181;812406;-66
2023/10/03 03:02:50;;;;;;;10.20;4.85;;;;;;;;;;756862;183;918487;-65
2023/10/03 03:05:16;;;;;;;6.97;4.10;;;;;;;;;;760286;183;919094;-65
2023/10/03 03:07:46;;;;;;;8.77;4.80;;;;;;;;;;766981;181;900254;-66
2023/10/03 03:10:14;;;;;;;17.33;4.77;;;;;;;;;;769632;182;936492;-66
2023/10/03 03:12:40;;;;;;;7.90;4.57;;;;;;;;;;774497;181;918951;-64
2023/10/03 03:15:07;;;;;;;6.27;4.60;;;;;;;;;;766090;181;917969;-64
2023/10/03 03:17:31;;;;;;;9.87;5.40;;;;;;;;;;770506;180;906801;-64
2023/10/03 03:19:59;;;;;;;8.67;4.50;;;;;;;;;;759865;185;922701;-66
2023/10/03 03:22:24;;;;;;;8.53;5.40;;;;;;;;;;747773;183;920309;-64
2023/10/03 03:24:51;;;;;;;9.53;4.97;;;;;;;;;;769570;181;815665;-66
2023/10/03 03:27:16;;;;;;;6.77;3.90;;;;;;;;;;769579;181;816788;-66
2023/10/03 03:29:57;;;;;;;11.60;4.23;;;;;;;;;;757168;186;922947;-67
2023/10/03 03:32:07;;;;;;;8.70;4.30;;;;;;;;;;765731;181;916823;-67
2023/10/03 03:34:32;;;;;;;11.43;6.23;;;;;;;;;;749209;185;816232;-66
2023/10/03 03:37:20;;;;;;;8.27;4.53;;;;;;;;;;767319;181;880179;-66
2023/10/03 03:39:26;;;;;;;9.97;5.40;;;;;;;;;;767330;178;937076;-67
2023/10/03 03:41:52;;;;;;;9.23;4.80;;;;;;;;;;764269;180;919117;-66
2023/10/03 03:44:19;;;;;;;8.57;4.80;;;;;;;;;;771681;182;918733;-66
2023/10/03 03:46:45;;;;;;;8.80;4.60;;;;;;;;;;762968;182;919330;-65
2023/10/03 03:49:14;;;;;;;10.53;5.93;;;;;;;;;;749883;184;919267;-65
2023/10/03 03:51:37;;;;;;;10.25;5.10;;;;;;;;;;751661;185;924240;-66
2023/10/03 03:54:07;;;;;;;8.60;4.27;;;;;;;;;;758853;183;919164;-65
2023/10/03 03:56:29;;;;;;;14.37;4.20;;;;;;;;;;773806;181;918850;-67
2023/10/03 03:58:55;;;;;;;7.43;4.63;;;;;;;;;;766926;179;919074;-66
2023/10/03 04:01:21;;;;;;;9.27;4.90;;;;;;;;;;779775;179;918910;-64
2023/10/03 04:03:50;;;;;;;8.90;5.37;;;;;;;;;;763939;181;620712;-67
2023/10/03 04:06:15;;;;;;;8.73;4.67;;;;;;;;;;776992;180;641253;-67
2023/10/03 04:08:41;;;;;;;8.80;5.17;;;;;;;;;;776073;178;627411;-66
2023/10/03 04:11:07;;;;;;;9.83;5.10;;;;;;;;;;776702;181;634266;-67
2023/10/03 04:13:38;;;;;;;10.30;5.13;;;;;;;;;;769071;180;622722;-67
2023/10/03 04:16:00;;;;;;;8.70;5.10;;;;;;;;;;771514;178;921604;-65
2023/10/03 04:18:27;;;;;;;7.50;4.67;;;;;;;;;;762862;183;624437;-65
2023/10/03 04:20:54;;;;;;;9.30;5.47;;;;;;;;;;759251;183;913174;-66
2023/10/03 04:23:20;;;;;;;10.33;4.30;;;;;;;;;;767982;180;641642;-67
2023/10/03 04:25:46;;;;;;;6.50;3.80;;;;;;;;;;775779;181;665271;-65
2023/10/03 04:28:16;;;;;;;7.77;4.13;;;;;;;;;;776695;178;653315;-66
2023/10/03 04:30:39;;;;;;;5.63;4.37;;;;;;;;;;773367;180;630668;-67
2023/10/03 04:33:03;;;;;;;6.80;3.90;;;;;;;;;;770991;180;632744;-66
2023/10/03 04:35:29;;;;;;;6.63;3.97;;;;;;;;;;772020;182;916642;-65
2023/10/03 04:37:57;;;;;;;8.00;4.33;;;;;;;;;;772617;181;628928;-66
2023/10/03 04:40:22;;;;;;;16.70;5.90;;;;;;;;;;772924;181;626185;-67
2023/10/03 04:42:49;;;;;;;6.17;4.27;;;;;;;;;;778283;179;633342;-65
2023/10/03 04:45:14;;;;;;;9.70;4.73;;;;;;;;;;757022;182;643401;-65
2023/10/03 04:47:43;;;;;;;8.87;5.13;;;;;;;;;;759780;182;630583;-66
2023/10/03 04:50:08;;;;;;;9.00;4.20;;;;;;;;;;760116;185;625119;-66
2023/10/03 04:52:34;;;;;;;9.53;5.53;;;;;;;;;;768703;181;628557;-68
2023/10/03 04:55:00;;;;;;;7.13;4.40;;;;;;;;;;773310;178;630995;-67
2023/10/03 04:57:28;;;;;;;12.50;5.00;;;;;;;;;;775754;178;616145;-66
2023/10/03 04:59:57;;;;;;;9.43;5.07;;;;;;;;;;776722;181;629786;-66
2023/10/03 05:02:23;;;;;;;8.23;4.90;;;;;;;;;;766860;181;629104;-65
2023/10/03 05:04:49;;;;;;;11.82;5.10;;;;;;;;;;771287;178;920603;-65
2023/10/03 05:07:15;;;;;;;8.23;5.15;;;;;;;;;;759717;186;818078;-67
2023/10/03 05:09:40;;;;;;;9.60;4.93;;;;;;;;;;748622;183;1018068;-65
2023/10/03 05:12:06;;;;;;;9.17;4.43;;;;;;;;;;756055;182;918737;-64
2023/10/03 05:14:34;;;;;;;9.30;5.03;;;;;;;;;;772298;179;916952;-66
2023/10/03 05:17:01;;;;;;;7.57;4.60;;;;;;;;;;770954;179;914554;-65
2023/10/03 05:19:24;;;;;;;9.27;5.60;;;;;;;;;;749869;184;916050;-66
2023/10/03 05:21:50;;;;;;;7.68;4.70;;;;;;;;;;770828;180;915698;-68
2023/10/03 05:24:16;;;;;;;11.27;4.57;;;;;;;;;;773084;181;917701;-68
2023/10/03 05:26:42;;;;;;;9.03;5.27;;;;;;;;;;769553;180;915649;-65
2023/10/03 05:29:07;;;;;;;12.50;6.30;;;;;;;;;;768001;180;917615;-66
2023/10/03 05:31:40;;;;;;;10.30;5.40;;;;;;;;;;776065;180;813619;-66
2023/10/03 05:34:03;;;;;;;11.50;5.47;;;;;;;;;;766816;178;915134;-66
2023/10/03 05:36:27;;;;;;;9.90;5.50;;;;;;;;;;748283;185;915330;-67
2023/10/03 05:38:53;;;;;;;12.30;6.67;;;;;;;;;;762655;181;913712;-66
2023/10/03 05:41:21;;;;;;;7.07;5.07;;;;;;;;;;771420;181;916486;-67
2023/10/03 05:43:46;;;;;;;10.60;4.70;;;;;;;;;;749091;185;819192;-66
2023/10/03 05:46:12;;;;;;;15.47;7.43;;;;;;;;;;772102;181;921811;-66
2023/10/03 05:48:38;;;;;;;10.67;5.70;;;;;;;;;;773435;181;814152;-67
2023/10/03 05:51:05;;;;;;;12.13;5.77;;;;;;;;;;766460;181;919864;-66
2023/10/03 05:53:30;;;;;;;12.57;5.80;;;;;;;;;;765155;181;920023;-66
2023/10/03 05:55:55;;;;;;;8.77;5.00;;;;;;;;;;760817;185;913312;-66
2023/10/03 05:58:21;;;;;;;12.60;5.47;;;;;;;;;;767294;181;919166;-67
2023/10/03 06:00:47;;;;;;;8.03;4.90;;;;;;;;;;769712;178;919006;-67
2023/10/03 06:03:13;;;;;;;9.73;5.60;;;;;;;;;;764082;183;918664;-67
2023/10/03 06:05:39;;;;;;;9.00;5.97;;;;;;;;;;770943;182;918892;-67
2023/10/03 06:08:05;;;;;;;10.10;5.37;;;;;;;;;;759603;179;920902;-67
2023/10/03 06:10:30;;;;;;;12.20;6.90;;;;;;;;;;769969;180;919382;-67
2023/10/03 06:12:56;;;;;;;11.30;5.60;;;;;;;;;;773189;179;918709;-68
2023/10/03 06:15:23;;;;;;;10.03;5.80;;;;;;;;;;776526;178;713810;-68
2023/10/03 06:17:48;;;;;;;11.57;5.90;;;;;;;;;;755954;183;918498;-67
2023/10/03 06:20:14;;;;;;;8.67;5.57;;;;;;;;;;753586;184;919163;-66
2023/10/03 06:22:40;;;;;;;12.10;7.20;;;;;;;;;;768441;179;915631;-67
2023/10/03 06:25:07;;;;;;;14.87;7.10;;;;;;;;;;774268;176;919049;-66
2023/10/03 06:27:32;;;;;;;12.90;7.17;;;;;;;;;;777853;181;816570;-67
2023/10/03 06:29:58;;;;;;;12.40;6.40;;;;;;;;;;771491;182;919175;-68
2023/10/03 06:32:23;;;;;;;12.17;6.77;;;;;;;;;;767610;180;919606;-69
2023/10/03 06:34:50;;;;;;;15.47;7.20;;;;;;;;;;767911;181;918507;-68
2023/10/03 06:37:16;;;;;;;12.10;7.70;;;;;;;;;;757096;184;909890;-68
2023/10/03 06:39:42;;;;;;;12.53;7.37;;;;;;;;;;765476;181;917335;-69
2023/10/03 06:42:08;;;;;;;16.63;8.03;;;;;;;;;;774390;178;817539;-69
2023/10/03 06:44:36;;;;;;;10.63;7.10;;;;;;;;;;774514;181;817814;-68
2023/10/03 06:47:00;;;;;;;9.73;6.50;;;;;;;;;;769524;178;906820;-69
2023/10/03 06:49:25;;;;;;;12.93;7.18;;;;;;;;;;772248;178;924804;-69
2023/10/03 06:51:56;;;;;;;11.00;6.90;;;;;;;;;;759018;185;920478;-70
2023/10/03 06:54:17;;;;;;;12.13;7.00;;;;;;;;;;769085;180;919472;-68
2023/10/03 06:56:43;;;;;;;11.90;7.20;;;;;;;;;;765561;178;917708;-68
2023/10/03 06:59:10;;;;;;;14.17;7.90;;;;;;;;;;772724;180;919437;-68
2023/10/03 07:01:35;;;;;;;14.90;7.10;;;;;;;;;;761152;185;909479;-68
2023/10/03 07:04:01;;;;;;;14.77;8.17;;;;;;;;;;750059;181;819056;-69
2023/10/03 07:06:26;;;;;;;14.20;6.70;;;;;;;;;;768418;181;937197;-69
2023/10/03 07:08:52;;;;;;;14.97;6.50;;;;;;;;;;758660;185;918264;-70
2023/10/03 07:11:18;;;;;;;12.50;8.00;;;;;;;;;;767634;182;919337;-71
2023/10/03 07:13:44;;;;;;;14.70;7.20;;;;;;;;;;769793;180;917296;-68
2023/10/03 07:16:11;;;;;;;12.73;6.83;;;;;;;;;;767941;180;919341;-68
2023/10/03 07:18:35;;;;;;;12.47;6.27;;;;;;;;;;768322;178;920166;-68
2023/10/03 07:21:03;;;;;;;11.12;6.70;;;;;;;;;;771691;181;923061;-70
2023/10/03 07:23:28;;;;;;;13.80;6.53;;;;;;;;;;772403;181;817046;-67
2023/10/03 07:25:53;;;;;;;10.93;6.70;;;;;;;;;;775186;178;804405;-68
2023/10/03 07:28:19;;;;;;;13.50;7.10;;;;;;;;;;765090;182;937211;-68
2023/10/03 07:30:45;;;;;;;12.13;6.90;;;;;;;;;;769265;181;918333;-67
2023/10/03 07:33:11;;;;;;;15.20;6.90;;;;;;;;;;758463;185;934580;-67
2023/10/03 07:35:41;;;;;;;15.80;7.13;;;;;;;;;;758994;183;918709;-66
2023/10/03 07:38:02;;;;;;;12.83;7.40;;;;;;;;;;771183;179;819186;-67
2023/10/03 07:40:28;;;;;;;15.87;7.07;;;;;;;;;;773904;181;918721;-70
2023/10/03 07:42:54;;;;;;;17.47;6.80;;;;;;;;;;768889;175;919079;-70
2023/10/03 07:45:21;;;;;;;12.27;6.20;;;;;;;;;;772660;180;925841;-68
2023/10/03 07:47:46;;;;;;;15.90;6.50;;;;;;;;;;757919;183;928444;-67
2023/10/03 07:50:13;;;;;;;13.33;6.53;;;;;;;;;;762558;181;920459;-67
2023/10/03 07:52:37;;;;;;;14.33;6.20;;;;;;;;;;770367;181;920195;-69
2023/10/03 07:55:05;;;;;;;12.03;6.50;;;;;;;;;;758891;183;816554;-71
2023/10/03 07:57:30;;;;;;;9.97;6.57;;;;;;;;;;759933;181;918460;-71
2023/10/03 07:59:55;;;;;;;18.33;7.73;;;;;;;;;;761008;184;917205;-72
2023/10/03 08:02:26;;;;;;;12.97;6.17;;;;;;;;;;770117;178;919387;-70
2023/10/03 08:04:47;;;;;;;12.63;6.70;;;;;;;;;;776490;181;918681;-70
2023/10/03 08:07:21;;;;;;;15.13;7.55;;;;;;;;;;767221;181;917189;-66
2023/10/03 08:09:45;;;;;;;11.90;6.10;;;;;;;;;;763896;182;918465;-65
2023/10/03 08:12:11;;;;;;;13.30;6.00;;;;;;;;;;757936;185;913736;-70
2023/10/03 08:14:33;;;;;;;18.43;7.00;;;;;;;;;;765774;181;838362;-70
2023/10/03 08:16:58;;;;;;;14.87;5.70;;;;;;;;;;763532;181;919137;-65
2023/10/03 08:19:26;;;;;;;13.23;6.87;;;;;;;;;;757384;182;822927;-70
2023/10/03 08:21:53;;;;;;;14.30;7.77;;;;;;;;;;755710;182;919442;-66
2023/10/03 08:24:24;;;;;;;15.17;7.37;;;;;;;;;;765020;179;918378;-67
2023/10/03 08:26:46;;;;;;;13.03;6.93;;;;;;;;;;767958;180;941704;-66
2023/10/03 08:29:21;;;;;;;12.30;7.57;;;;;;;;;;772214;181;918413;-66
2023/10/03 08:31:38;;;;;;;17.63;7.10;;;;;;;;;;766941;182;920225;-71
2023/10/03 08:34:04;;;;;;;11.93;7.27;;;;;;;;;;767002;181;919319;-72
2023/10/03 08:36:32;;;;;;;13.07;6.40;;;;;;;;;;773933;180;919038;-72
2023/10/03 08:39:04;;;;;;;14.93;7.97;;;;;;;;;;765963;180;919268;-66
2023/10/03 08:41:23;;;;;;;17.33;6.40;;;;;;;;;;768547;181;915583;-63
2023/10/03 08:43:53;;;;;;;14.57;7.20;;;;;;;;;;766324;181;914275;-63
2023/10/03 08:46:15;;;;;;;9.97;5.93;;;;;;;;;;774196;180;919875;-65
2023/10/03 08:48:43;;;;;;;14.57;7.97;;;;;;;;;;774802;177;905996;-71
2023/10/03 08:51:07;;;;;;;14.10;7.90;;;;;;;;;;773105;180;884759;-65
2023/10/03 08:53:32;;;;;;;14.07;7.00;;;;;;;;;;772808;181;840753;-70
2023/10/03 08:55:58;;;;;;;10.43;7.10;;;;;;;;;;771143;181;916763;-73
2023/10/03 08:58:26;;;;;;;15.50;6.67;;;;;;;;;;768627;181;943642;-65
2023/10/03 09:00:58;;;;;;;24.33;8.10;;;;;;;;;;772162;181;914693;-66
2023/10/03 09:03:18;;;;;;;13.00;7.00;;;;;;;;;;765646;180;914374;-65
2023/10/03 09:05:43;;;;;;;11.47;6.23;;;;;;;;;;767661;181;820216;-73
2023/10/03 09:08:09;;;;;;;19.00;7.40;;;;;;;;;;774995;178;919453;-66
2023/10/03 09:10:42;;;;;;;10.63;6.20;;;;;;;;;;775478;180;879735;-65
2023/10/03 09:13:04;;;;;;;11.17;6.67;;;;;;;;;;775009;177;947845;-66
2023/10/03 09:15:37;;;;;;;15.80;6.77;;;;;;;;;;765458;182;814316;-65
2023/10/03 09:17:58;;;;;;;16.37;7.80;;;;;;;;;;772586;181;915777;-73
2023/10/03 09:20:31;;;;;;;11.60;7.55;;;;;;;;;;766321;182;915123;-66
2023/10/03 09:22:52;;;;;;;12.30;6.70;;;;;;;;;;768547;180;921012;-66
2023/10/03 09:25:18;;;;;;;13.73;7.23;;;;;;;;;;768545;179;912674;-73
2023/10/03 09:27:42;;;;;;;16.20;7.07;;;;;;;;;;770676;178;1024218;-74
2023/10/03 09:30:10;;;;;;;15.90;7.73;;;;;;;;;;766762;180;915773;-68
2023/10/03 09:32:39;;;;;;;13.37;6.67;;;;;;;;;;769778;181;913679;-73
2023/10/03 09:35:09;;;;;;;11.70;6.77;;;;;;;;;;771983;182;915663;-65
2023/10/03 09:37:28;;;;;;;12.73;7.10;;;;;;;;;;767041;180;914871;-63
2023/10/03 09:39:57;;;;;;;14.23;6.20;;;;;;;;;;769110;181;916995;-74
2023/10/03 09:42:23;;;;;;;13.50;7.20;;;;;;;;;;771641;180;919269;-65
2023/10/03 09:44:46;;;;;;;11.00;6.47;;;;;;;;;;770627;181;917108;-73
2023/10/03 09:47:12;;;;;;;13.97;5.87;;;;;;;;;;771344;181;853811;-73
2023/10/03 09:49:38;;;;;;;14.10;7.13;;;;;;;;;;769958;181;919290;-65
2023/10/03 09:52:04;;;;;;;12.87;6.47;;;;;;;;;;769737;181;919024;-64
2023/10/03 09:54:30;;;;;;;15.93;6.43;;;;;;;;;;767130;181;918565;-64
2023/10/03 09:56:57;;;;;;;13.27;6.07;;;;;;;;;;770143;181;920312;-65
2023/10/03 09:59:23;;;;;;;17.20;7.60;;;;;;;;;;760412;183;921681;-72
2023/10/03 10:01:48;;;;;;;11.60;6.47;;;;;;;;;;758061;182;878250;-65
2023/10/03 10:04:14;;;;;;;10.47;6.00;;;;;;;;;;777556;178;819628;-65
2023/10/03 10:06:41;;;;;;;11.77;6.90;;;;;;;;;;763130;184;615639;-74
2023/10/03 10:09:13;;;;;;;15.80;8.07;;;;;;;;;;778627;176;913098;-76
2023/10/03 10:11:47;;;;;;;11.80;6.03;;;;;;;;;;758295;182;620232;-67
2023/10/03 10:14:11;;;;;;;18.23;7.20;;;;;;;;;;770872;181;919032;-74
2023/10/03 10:16:37;;;;;;;10.57;6.70;;;;;;;;;;763650;183;627972;-71
2023/10/03 10:19:04;;;;;;;16.10;7.43;;;;;;;;;;771570;178;625501;-73
2023/10/03 10:21:31;;;;;;;12.30;7.10;;;;;;;;;;769200;181;631901;-73
2023/10/03 10:24:02;;;;;;;14.00;6.83;;;;;;;;;;773984;181;637357;-71
2023/10/03 10:26:29;;;;;;;12.27;6.53;;;;;;;;;;762614;185;633760;-66
2023/10/03 10:28:53;;;;;;;14.30;6.57;;;;;;;;;;774056;179;634165;-66
2023/10/03 10:31:22;;;;;;;13.87;7.73;;;;;;;;;;770805;182;921106;-66
2023/10/03 10:33:49;;;;;;;12.60;6.33;;;;;;;;;;764858;182;831828;-72
2023/10/03 10:36:14;;;;;;;14.10;7.30;;;;;;;;;;771816;181;920756;-72
2023/10/03 10:38:55;;;;;;;12.43;6.87;;;;;;;;;;767030;181;929195;-72
2023/10/03 10:41:27;;;;;;;13.50;6.60;;;;;;;;;;763389;181;921030;-69
2023/10/03 10:43:59;;;;;;;15.43;7.80;;;;;;;;;;768237;181;919813;-72
2023/10/03 10:46:30;;;;;;;13.10;6.90;;;;;;;;;;770579;181;817016;-69
2023/10/03 10:48:56;;;;;;;11.50;6.80;;;;;;;;;;764018;182;915029;-66
2023/10/03 10:51:22;;;;;;;15.80;6.80;;;;;;;;;;765005;178;919462;-73
2023/10/03 10:53:49;;;;;;;10.67;6.33;;;;;;;;;;767667;179;918173;-67
2023/10/03 10:56:14;;;;;;;14.97;7.23;;;;;;;;;;773577;181;869900;-73
2023/10/03 10:59:04;;;;;;;15.83;7.17;;;;;;;;;;769820;180;918367;-67
2023/10/03 11:01:29;;;;;;;11.87;6.80;;;;;;;;;;770667;181;915990;-68
2023/10/03 11:03:56;;;;;;;12.80;7.17;;;;;;;;;;764358;181;926378;-72
2023/10/03 11:06:23;;;;;;;14.25;7.10;;;;;;;;;;754985;185;919314;-74
2023/10/03 11:08:49;;;;;;;12.70;6.50;;;;;;;;;;759834;185;926472;-68
2023/10/03 11:11:15;;;;;;;12.30;7.40;;;;;;;;;;758044;181;859089;-72
2023/10/03 11:13:45;;;;;;;14.40;7.68;;;;;;;;;;754705;182;918289;-68
2023/10/03 11:16:10;;;;;;;11.67;7.40;;;;;;;;;;754777;183;816791;-68
2023/10/03 11:18:36;;;;;;;11.83;6.80;;;;;;;;;;767032;181;919034;-67
2023/10/03 11:21:03;;;;;;;13.47;7.43;;;;;;;;;;761530;181;918642;-73
2023/10/03 11:23:29;;;;;;;11.70;6.83;;;;;;;;;;770417;181;910680;-67
2023/10/03 11:25:55;;;;;;;15.60;7.67;;;;;;;;;;773372;181;817947;-73
2023/10/03 11:28:21;;;;;;;12.23;7.00;;;;;;;;;;764632;180;919368;-67
2023/10/03 11:30:53;;;;;;;11.63;7.20;;;;;;;;;;769615;182;912182;-66
2023/10/03 11:33:19;;;;;;;12.43;7.20;;;;;;;;;;753938;183;920249;-68
2023/10/03 11:35:46;;;;;;;13.53;7.70;;;;;;;;;;772785;181;818996;-73
2023/10/03 11:38:12;;;;;;;14.10;6.97;;;;;;;;;;770125;181;936604;-67
2023/10/03 11:40:39;;;;;;;16.07;6.87;;;;;;;;;;768982;181;919795;-66
2023/10/03 11:43:08;;;;;;;16.97;6.67;;;;;;;;;;773063;181;893925;-74
2023/10/03 11:45:33;;;;;;;13.43;6.70;;;;;;;;;;755933;182;920237;-72
2023/10/03 11:47:57;;;;;;;12.07;6.60;;;;;;;;;;764298;181;920202;-73
2023/10/03 11:50:22;;;;;;;17.00;7.90;;;;;;;;;;772990;181;862110;-68
2023/10/03 11:52:48;;;;;;;11.50;6.83;;;;;;;;;;770357;177;920090;-72
2023/10/03 11:55:15;;;;;;;13.00;7.07;;;;;;;;;;766257;180;825304;-74
2023/10/03 11:57:40;;;;;;;13.07;6.13;;;;;;;;;;769530;180;917768;-73
2023/10/03 12:00:14;;;;;;;14.30;6.87;;;;;;;;;;774457;182;920621;-66
2023/10/03 12:02:32;;;;;;;13.50;6.90;;;;;;;;;;764529;181;913566;-66
2023/10/03 12:04:58;;;;;;;12.40;6.73;;;;;;;;;;764502;182;919539;-66
2023/10/03 12:07:24;;;;;;;14.53;6.30;;;;;;;;;;773655;177;918401;-66
2023/10/03 12:09:51;;;;;;;12.47;6.80;;;;;;;;;;771039;180;919440;-67
2023/10/03 12:12:17;;;;;;;10.90;6.80;;;;;;;;;;758210;181;909624;-66
2023/10/03 12:14:45;;;;;;;12.13;7.03;;;;;;;;;;775845;181;902841;-66
2023/10/03 12:17:11;;;;;;;14.97;7.20;;;;;;;;;;769324;181;912872;-66
2023/10/03 12:19:37;;;;;;;14.05;6.85;;;;;;;;;;768531;181;922385;-67
2023/10/03 12:22:02;;;;;;;11.93;6.40;;;;;;;;;;766022;179;915308;-72
2023/10/03 12:24:28;;;;;;;11.60;6.53;;;;;;;;;;775590;178;916714;-71
2023/10/03 12:26:54;;;;;;;10.03;5.70;;;;;;;;;;757821;183;925401;-66
2023/10/03 12:29:20;;;;;;;8.17;5.23;;;;;;;;;;753966;182;916158;-67
2023/10/03 12:31:48;;;;;;;11.38;6.03;;;;;;;;;;769963;181;927679;-66
2023/10/03 12:34:12;;;;;;;9.50;5.37;;;;;;;;;;771566;181;816197;-70
2023/10/03 12:36:37;;;;;;;11.67;6.57;;;;;;;;;;771465;178;920925;-71
2023/10/03 12:39:10;;;;;;;15.50;7.57;;;;;;;;;;772823;178;918393;-67
2023/10/03 12:41:30;;;;;;;9.67;6.00;;;;;;;;;;757135;182;914805;-65
2023/10/03 12:43:56;;;;;;;19.10;7.27;;;;;;;;;;768600;182;906942;-72
2023/10/03 12:46:23;;;;;;;15.17;7.20;;;;;;;;;;757412;185;919133;-66
2023/10/03 12:48:49;;;;;;;11.83;6.57;;;;;;;;;;753202;181;921132;-72
2023/10/03 12:51:15;;;;;;;11.23;6.60;;;;;;;;;;768263;182;919421;-66
2023/10/03 12:53:41;;;;;;;10.57;5.73;;;;;;;;;;756150;182;919533;-70
2023/10/03 12:56:08;;;;;;;14.18;6.40;;;;;;;;;;758083;185;918498;-69
2023/10/03 12:58:35;;;;;;;11.70;6.43;;;;;;;;;;762700;181;919002;-71
2023/10/03 13:01:01;;;;;;;10.33;5.97;;;;;;;;;;765104;181;935137;-71
2023/10/03 13:03:26;;;;;;;13.20;6.07;;;;;;;;;;774668;182;919569;-72
2023/10/03 13:05:55;;;;;;;11.33;6.13;;;;;;;;;;769496;181;918948;-71
2023/10/03 13:08:18;;;;;;;11.13;6.63;;;;;;;;;;762547;181;917269;-66
2023/10/03 13:10:44;;;;;;;12.50;6.73;;;;;;;;;;769898;180;759001;-71
2023/10/03 13:13:10;;;;;;;11.30;6.20;;;;;;;;;;767813;182;878990;-72
2023/10/03 13:15:36;;;;;;;11.53;6.33;;;;;;;;;;765774;181;915050;-71
2023/10/03 13:18:03;;;;;;;11.63;7.33;;;;;;;;;;767566;180;929828;-66
2023/10/03 13:20:29;;;;;;;12.60;6.67;;;;;;;;;;773268;181;919191;-71
2023/10/03 13:22:57;;;;;;;13.37;6.63;;;;;;;;;;767028;181;911832;-66
2023/10/03 13:25:21;;;;;;;12.37;5.50;;;;;;;;;;770887;180;919589;-65
2023/10/03 13:27:48;;;;;;;12.77;6.20;;;;;;;;;;756137;183;918377;-66
2023/10/03 13:30:18;;;;;;;9.97;5.80;;;;;;;;;;736536;189;922222;-65
2023/10/03 13:32:40;;;;;;;15.43;6.12;;;;;;;;;;766647;181;817375;-71
2023/10/03 13:35:06;;;;;;;11.07;5.90;;;;;;;;;;773097;178;925814;-70
2023/10/03 13:37:32;;;;;;;14.97;6.47;;;;;;;;;;774338;180;918109;-70
2023/10/03 13:39:57;;;;;;;11.48;5.62;;;;;;;;;;768169;179;919665;-65
2023/10/03 13:42:23;;;;;;;10.93;6.73;;;;;;;;;;752984;185;816304;-65
2023/10/03 13:44:53;;;;;;;12.90;5.60;;;;;;;;;;760727;185;905846;-66
2023/10/03 13:47:16;;;;;;;10.63;5.70;;;;;;;;;;772863;181;818252;-65
2023/10/03 13:49:41;;;;;;;11.00;5.83;;;;;;;;;;778778;180;816818;-65
2023/10/03 13:52:08;;;;;;;11.70;5.57;;;;;;;;;;758850;185;918866;-69
2023/10/03 13:54:36;;;;;;;14.53;5.60;;;;;;;;;;764409;182;918265;-71
2023/10/03 13:57:05;;;;;;;11.60;6.63;;;;;;;;;;766899;180;919747;-71
2023/10/03 13:59:27;;;;;;;11.43;6.03;;;;;;;;;;762146;181;919180;-71
2023/10/03 14:01:54;;;;;;;13.70;5.60;;;;;;;;;;767580;182;816413;-72
2023/10/03 14:04:18;;;;;;;10.70;5.70;;;;;;;;;;750446;182;916682;-70
2023/10/03 14:06:44;;;;;;;14.90;6.47;;;;;;;;;;767674;182;919107;-70
2023/10/03 14:09:12;;;;;;;13.03;5.10;;;;;;;;;;775262;181;708416;-71
2023/10/03 14:11:37;;;;;;;10.93;5.87;;;;;;;;;;771431;180;914860;-71
2023/10/03 14:14:03;;;;;;;13.40;6.70;;;;;;;;;;767117;180;919852;-72